Time;durP1;ratioP1;P1;durP2;ratioP2;P2;SDS_P1;SDS_P2;PMS_P1;PMS_P2;Temp;Humidity;BMP_temperature;BMP_pressure;BME280_temperature;BME280_humidity;BME280_pressure;Samples;Min_cycle;Max_cycle;Signal;HPM_P1;HPM_P2
2022/12/24 00:01:03;;;;;;;13.53;4.90;;;11.10;99.90;;;;;;4926848;29;20405;-72
2022/12/24 00:03:36;;;;;;;13.07;4.33;;;11.10;99.90;;;;;;4896072;28;20468;-73
2022/12/24 00:06:18;;;;;;;13.90;5.23;;;11.10;99.90;;;;;;4910888;29;20856;-71
2022/12/24 00:08:46;;;;;;;14.17;3.83;;;11.10;99.90;;;;;;4899028;29;20524;-72
2022/12/24 00:11:14;;;;;;;16.30;4.57;;;11.10;99.90;;;;;;4894113;29;20462;-72
2022/12/24 00:13:40;;;;;;;12.73;4.10;;;11.00;99.90;;;;;;4901481;28;20466;-72
2022/12/24 00:16:12;;;;;;;10.93;4.07;;;11.00;99.90;;;;;;4911792;29;20810;-71
2022/12/24 00:18:41;;;;;;;13.77;4.83;;;11.00;99.90;;;;;;4895658;28;20472;-72
2022/12/24 00:21:10;;;;;;;12.27;3.93;;;11.10;99.90;;;;;;4908238;29;20509;-73
2022/12/24 00:23:36;;;;;;;16.07;4.60;;;11.00;99.90;;;;;;4914825;28;20557;-72
2022/12/24 00:26:04;;;;;;;13.37;3.57;;;11.00;99.90;;;;;;4907701;29;20446;-73
2022/12/24 00:28:31;;;;;;;14.60;4.10;;;11.00;99.90;;;;;;4900627;28;20456;-72
2022/12/24 00:31:05;;;;;;;11.27;4.00;;;11.00;99.90;;;;;;4905560;28;20550;-73
2022/12/24 00:33:34;;;;;;;16.73;4.87;;;11.00;99.90;;;;;;4896705;28;20463;-72
2022/12/24 00:36:00;;;;;;;16.77;4.63;;;11.00;99.90;;;;;;4910380;29;20430;-72
2022/12/24 00:38:26;;;;;;;12.77;3.70;;;11.00;99.90;;;;;;4903442;28;20568;-72
2022/12/24 00:40:58;;;;;;;13.37;3.90;;;11.00;99.90;;;;;;4905662;29;21018;-72
2022/12/24 00:43:27;;;;;;;14.93;3.80;;;11.00;99.90;;;;;;4909114;28;20451;-70
2022/12/24 00:45:52;;;;;;;13.33;4.23;;;11.00;99.90;;;;;;4907987;28;20451;-71
2022/12/24 00:48:19;;;;;;;12.90;4.10;;;11.00;99.90;;;;;;4910991;28;21180;-71
2022/12/24 00:50:44;;;;;;;12.10;4.03;;;11.00;99.90;;;;;;4909550;29;20430;-73
2022/12/24 00:53:11;;;;;;;13.87;4.60;;;11.00;99.90;;;;;;4924876;28;20490;-71
2022/12/24 00:55:42;;;;;;;13.80;5.10;;;11.00;99.90;;;;;;4910394;28;20515;-71
2022/12/24 00:58:10;;;;;;;13.63;4.03;;;11.00;99.90;;;;;;4905532;28;21002;-71
2022/12/24 01:00:39;;;;;;;19.43;5.60;;;11.00;99.90;;;;;;4907189;29;21093;-71
2022/12/24 01:03:07;;;;;;;17.43;4.20;;;11.00;99.90;;;;;;4911862;29;20503;-71
2022/12/24 01:05:38;;;;;;;13.43;3.87;;;11.00;99.90;;;;;;4904317;29;20429;-71
2022/12/24 01:08:04;;;;;;;18.33;5.27;;;11.00;99.90;;;;;;4910656;28;20513;-71
2022/12/24 01:10:33;;;;;;;16.50;4.40;;;11.00;99.90;;;;;;4902194;29;20445;-71
2022/12/24 01:13:02;;;;;;;14.53;5.23;;;11.00;99.90;;;;;;4891865;29;20523;-71
2022/12/24 01:15:29;;;;;;;15.20;5.07;;;10.90;99.90;;;;;;4891123;29;20216;-72
2022/12/24 01:17:59;;;;;;;12.37;4.60;;;11.00;99.90;;;;;;4879620;29;20441;-72
2022/12/24 01:20:30;;;;;;;16.23;4.50;;;10.90;99.90;;;;;;4916752;28;20844;-70
2022/12/24 01:22:56;;;;;;;16.87;4.63;;;10.90;99.90;;;;;;4894456;29;20541;-70
2022/12/24 01:25:22;;;;;;;18.17;4.13;;;11.00;99.90;;;;;;4900816;29;20555;-71
2022/12/24 01:27:48;;;;;;;19.80;4.53;;;11.00;99.90;;;;;;4911983;29;20476;-71
2022/12/24 01:30:16;;;;;;;16.30;4.87;;;11.00;99.90;;;;;;4912244;28;20517;-71
2022/12/24 01:32:47;;;;;;;20.50;5.07;;;10.90;99.90;;;;;;4912241;29;20453;-71
2022/12/24 01:35:18;;;;;;;18.93;4.20;;;10.90;99.90;;;;;;4909717;29;20457;-71
2022/12/24 01:37:46;;;;;;;14.77;4.70;;;10.90;99.90;;;;;;4893630;29;20835;-71
2022/12/24 01:43:26;;;;;;;16.53;5.60;;;10.90;99.90;;;;;;4877960;29;20795;-71
2022/12/24 01:46:02;;;;;;;14.93;4.43;;;10.90;99.90;;;;;;4890198;29;20500;-71
2022/12/24 01:48:45;;;;;;;16.17;4.63;;;10.90;99.90;;;;;;4908925;29;20481;-71
2022/12/24 01:51:27;;;;;;;22.90;4.90;;;10.90;99.90;;;;;;4909531;29;20907;-71
2022/12/24 01:54:02;;;;;;;16.20;4.87;;;10.90;99.90;;;;;;4927153;29;20492;-71
2022/12/24 01:56:34;;;;;;;20.30;4.70;;;10.90;99.90;;;;;;4911323;28;20424;-71
2022/12/24 01:59:11;;;;;;;18.53;4.67;;;10.90;99.90;;;;;;4891004;29;20468;-71
2022/12/24 02:01:40;;;;;;;15.23;5.30;;;10.90;99.90;;;;;;4927730;29;20477;-71
2022/12/24 02:04:18;;;;;;;16.63;5.70;;;10.90;99.90;;;;;;4901812;29;20450;-71
2022/12/24 02:06:44;;;;;;;14.00;4.23;;;10.90;99.90;;;;;;4912441;29;20858;-70
2022/12/24 02:09:12;;;;;;;15.07;4.30;;;10.90;99.90;;;;;;4913100;29;20508;-71
2022/12/24 02:11:43;;;;;;;18.07;5.23;;;10.90;99.90;;;;;;4909221;29;20428;-71
2022/12/24 02:14:13;;;;;;;18.83;4.87;;;10.90;99.90;;;;;;4912849;29;20445;-71
2022/12/24 02:16:57;;;;;;;14.17;4.13;;;10.90;99.90;;;;;;4907491;29;20460;-70
2022/12/24 02:19:51;;;;;;;15.30;5.47;;;10.90;99.90;;;;;;4912173;29;20470;-70
2022/12/24 02:22:53;;;;;;;17.67;4.57;;;10.90;99.90;;;;;;4909298;29;20460;-70
2022/12/24 02:25:59;;;;;;;20.10;5.10;;;10.90;99.90;;;;;;4933467;29;20972;-71
2022/12/24 02:28:47;;;;;;;12.23;4.57;;;10.90;99.90;;;;;;4929941;29;20466;-71
2022/12/24 02:31:39;;;;;;;13.83;4.53;;;10.80;99.90;;;;;;4902005;29;20945;-71
2022/12/24 02:34:17;;;;;;;22.60;4.87;;;10.80;99.90;;;;;;4908237;29;20453;-71
2022/12/24 02:37:07;;;;;;;16.53;4.60;;;10.80;99.90;;;;;;4910634;29;20483;-71
2022/12/24 02:39:48;;;;;;;16.47;5.47;;;10.80;99.90;;;;;;4909623;29;20539;-71
2022/12/24 02:42:24;;;;;;;25.10;5.70;;;10.80;99.90;;;;;;4892645;29;20847;-71
2022/12/24 02:45:14;;;;;;;19.47;5.23;;;10.80;99.90;;;;;;4896427;29;20475;-71
2022/12/24 02:47:44;;;;;;;18.00;4.80;;;10.80;99.90;;;;;;4893523;29;20980;-71
2022/12/24 02:50:15;;;;;;;16.50;5.17;;;10.80;99.90;;;;;;4898669;29;20422;-70
2022/12/24 02:52:45;;;;;;;17.90;4.27;;;10.80;99.90;;;;;;4911960;28;20449;-71
2022/12/24 02:55:23;;;;;;;13.43;4.80;;;10.80;99.90;;;;;;4911907;29;20429;-71
2022/12/24 02:58:21;;;;;;;14.93;5.50;;;10.80;99.90;;;;;;4901122;29;20465;-70
2022/12/24 03:01:24;;;;;;;15.83;4.17;;;10.80;99.90;;;;;;4902921;29;20429;-71
2022/12/24 03:04:09;;;;;;;12.57;3.83;;;10.70;99.90;;;;;;4911214;29;20479;-71
2022/12/24 03:06:48;;;;;;;20.83;4.43;;;10.70;99.90;;;;;;4908524;29;20471;-71
2022/12/24 03:09:40;;;;;;;10.87;4.23;;;10.70;99.90;;;;;;4910375;29;20464;-70
2022/12/24 03:12:18;;;;;;;12.30;3.60;;;10.70;99.90;;;;;;4927203;29;20456;-71
2022/12/24 03:14:48;;;;;;;13.37;4.00;;;10.70;99.90;;;;;;4903483;29;20429;-71
2022/12/24 03:17:18;;;;;;;14.43;3.80;;;10.70;99.90;;;;;;4907065;29;20446;-71
2022/12/24 03:19:44;;;;;;;16.57;4.37;;;10.70;99.90;;;;;;4876820;29;20432;-71
2022/12/24 03:22:11;;;;;;;18.20;4.33;;;10.70;99.90;;;;;;4882439;29;20449;-71
2022/12/24 03:24:39;;;;;;;16.70;4.10;;;10.70;99.90;;;;;;4911311;29;20437;-71
2022/12/24 03:27:10;;;;;;;16.20;4.60;;;10.70;99.90;;;;;;4904375;28;20496;-71
2022/12/24 03:29:43;;;;;;;8.93;4.10;;;10.70;99.90;;;;;;4892132;29;20890;-71
2022/12/24 03:32:13;;;;;;;11.07;3.60;;;10.70;99.90;;;;;;4880564;29;20565;-71
2022/12/24 03:34:42;;;;;;;11.63;4.00;;;10.70;99.90;;;;;;4896316;29;20408;-71
2022/12/24 03:37:08;;;;;;;15.37;4.27;;;10.70;99.90;;;;;;4919043;29;20468;-71
2022/12/24 03:39:34;;;;;;;16.83;4.00;;;10.70;99.90;;;;;;4915308;29;20489;-71
2022/12/24 03:42:02;;;;;;;19.97;4.83;;;10.70;99.90;;;;;;4924302;29;21177;-71
2022/12/24 03:44:28;;;;;;;11.07;3.80;;;10.70;99.90;;;;;;4914259;29;21057;-71
2022/12/24 03:46:56;;;;;;;12.27;4.33;;;10.70;99.90;;;;;;4902973;29;20573;-71
2022/12/24 03:49:22;;;;;;;15.67;5.50;;;10.70;99.90;;;;;;4896447;29;20508;-71
2022/12/24 03:51:53;;;;;;;14.47;4.30;;;10.70;99.90;;;;;;4904707;29;20453;-71
2022/12/24 03:54:23;;;;;;;16.00;4.47;;;10.70;99.90;;;;;;4914669;29;20427;-71
2022/12/24 03:56:51;;;;;;;15.03;4.60;;;10.70;99.90;;;;;;4891508;28;20429;-70
2022/12/24 03:59:22;;;;;;;12.53;3.70;;;10.70;99.90;;;;;;4913941;29;20417;-71
2022/12/24 04:01:49;;;;;;;11.50;4.20;;;10.70;99.90;;;;;;4895738;29;20469;-70
2022/12/24 04:04:17;;;;;;;13.30;3.80;;;10.70;99.90;;;;;;4910776;29;20413;-71
2022/12/24 04:06:45;;;;;;;13.33;4.20;;;10.70;99.90;;;;;;4898798;29;20438;-71
2022/12/24 04:09:11;;;;;;;16.73;5.60;;;10.70;99.90;;;;;;4900866;29;20487;-71
2022/12/24 04:11:37;;;;;;;12.37;4.27;;;10.70;99.90;;;;;;4913321;29;20421;-71
2022/12/24 04:14:05;;;;;;;21.33;4.30;;;10.70;99.90;;;;;;4908303;29;20553;-71
2022/12/24 04:16:31;;;;;;;17.10;4.40;;;10.70;99.90;;;;;;4910535;29;20947;-71
2022/12/24 04:18:57;;;;;;;14.30;4.43;;;10.70;99.90;;;;;;4898380;29;20464;-71
2022/12/24 04:21:28;;;;;;;12.20;4.67;;;10.70;99.90;;;;;;4909867;29;20404;-71
2022/12/24 04:23:59;;;;;;;12.67;3.70;;;10.70;99.90;;;;;;4905762;29;20504;-71
2022/12/24 04:26:27;;;;;;;8.53;3.17;;;10.70;99.90;;;;;;4913329;29;20468;-70
2022/12/24 04:28:58;;;;;;;10.60;4.00;;;10.70;99.90;;;;;;4910018;29;20457;-71
2022/12/24 04:31:26;;;;;;;14.13;3.80;;;10.70;99.90;;;;;;4914335;29;20831;-71
2022/12/24 04:33:54;;;;;;;12.13;3.77;;;10.70;99.90;;;;;;4913460;29;20449;-71
2022/12/24 04:36:21;;;;;;;13.00;3.23;;;10.70;99.90;;;;;;4906862;29;20418;-70
2022/12/24 04:38:51;;;;;;;9.50;2.80;;;10.70;99.90;;;;;;4896573;29;20559;-71
2022/12/24 04:41:22;;;;;;;15.10;2.90;;;10.70;99.90;;;;;;4913201;29;20530;-71
2022/12/24 04:43:53;;;;;;;14.80;3.17;;;10.70;99.90;;;;;;4911895;29;20806;-71
2022/12/24 04:46:29;;;;;;;16.80;4.30;;;10.70;99.90;;;;;;4925420;29;20533;-70
2022/12/24 04:48:55;;;;;;;10.30;2.87;;;10.70;99.90;;;;;;4902588;28;20809;-71
2022/12/24 04:51:23;;;;;;;8.53;3.13;;;10.70;99.90;;;;;;4878663;29;20414;-70
2022/12/24 04:53:50;;;;;;;18.70;6.60;;;10.70;99.90;;;;;;4895213;29;20480;-71
2022/12/24 04:56:22;;;;;;;9.07;3.40;;;10.70;99.90;;;;;;4894287;29;20810;-71
2022/12/24 04:58:51;;;;;;;10.03;3.27;;;10.70;99.90;;;;;;4899963;28;20469;-70
2022/12/24 05:01:23;;;;;;;7.67;2.83;;;10.70;99.90;;;;;;4903360;29;20641;-71
2022/12/24 05:03:50;;;;;;;9.33;3.30;;;10.70;99.90;;;;;;4928642;29;20448;-71
2022/12/24 05:06:21;;;;;;;9.33;3.20;;;10.70;99.90;;;;;;4906216;29;20437;-71
2022/12/24 05:08:47;;;;;;;8.53;3.03;;;10.70;99.90;;;;;;4882137;29;20465;-71
2022/12/24 05:11:14;;;;;;;8.07;2.83;;;10.60;99.90;;;;;;4909421;29;20465;-71
2022/12/24 05:13:43;;;;;;;8.30;2.50;;;10.70;99.90;;;;;;4912341;28;20456;-71
2022/12/24 05:16:13;;;;;;;7.37;2.67;;;10.70;99.90;;;;;;4913703;29;20424;-71
2022/12/24 05:18:41;;;;;;;8.43;3.00;;;10.70;99.90;;;;;;4873391;29;20601;-71
2022/12/24 05:21:17;;;;;;;9.13;2.60;;;10.70;99.90;;;;;;4898285;29;20428;-71
2022/12/24 05:26:36;;;;;;;9.47;3.50;;;10.60;99.90;;;;;;4908654;29;20453;-71
2022/12/24 05:29:03;;;;;;;12.80;3.50;;;10.70;99.90;;;;;;4903087;29;20965;-71
2022/12/24 05:31:34;;;;;;;14.13;3.53;;;10.60;99.90;;;;;;4894833;29;20433;-72
2022/12/24 05:34:03;;;;;;;12.70;3.17;;;10.70;99.90;;;;;;4898020;29;20962;-72
2022/12/24 05:36:32;;;;;;;10.70;3.63;;;10.70;99.90;;;;;;4893187;29;20524;-72
2022/12/24 05:38:59;;;;;;;8.20;3.60;;;10.60;99.90;;;;;;4901856;29;20904;-72
2022/12/24 05:41:27;;;;;;;14.73;4.00;;;10.70;99.90;;;;;;4923123;29;20514;-72
2022/12/24 05:43:58;;;;;;;9.20;3.37;;;10.70;99.90;;;;;;4911661;29;20445;-72
2022/12/24 05:46:31;;;;;;;11.03;2.83;;;10.70;99.90;;;;;;4888965;29;20978;-72
2022/12/24 05:48:58;;;;;;;9.93;3.40;;;10.60;99.90;;;;;;4915391;23;20507;-72
2022/12/24 05:51:33;;;;;;;7.57;3.90;;;10.70;99.90;;;;;;4892303;29;20438;-71
2022/12/24 05:53:59;;;;;;;11.03;2.83;;;10.70;99.90;;;;;;4894395;29;20445;-72
2022/12/24 05:56:29;;;;;;;7.90;2.87;;;10.70;99.90;;;;;;4941537;28;20485;-72
2022/12/24 05:58:56;;;;;;;7.37;2.90;;;10.70;99.90;;;;;;4891070;28;20446;-71
2022/12/24 06:01:27;;;;;;;15.10;3.40;;;10.70;99.90;;;;;;4894458;28;20442;-72
2022/12/24 06:03:56;;;;;;;14.50;3.43;;;10.70;99.90;;;;;;4892430;29;20993;-72
2022/12/24 06:06:27;;;;;;;9.63;3.20;;;10.70;99.90;;;;;;4893376;29;20926;-71
2022/12/24 06:08:56;;;;;;;9.10;3.60;;;10.70;99.90;;;;;;4877731;29;20462;-72
2022/12/24 06:11:27;;;;;;;11.20;3.60;;;10.70;99.90;;;;;;4893149;29;20404;-72
2022/12/24 06:13:57;;;;;;;13.47;3.97;;;10.70;99.90;;;;;;4873767;29;20494;-72
2022/12/24 06:16:26;;;;;;;10.97;3.97;;;10.70;99.90;;;;;;4874608;29;20537;-72
2022/12/24 06:18:54;;;;;;;17.03;4.97;;;10.70;99.90;;;;;;4906989;29;20444;-72
2022/12/24 06:21:24;;;;;;;9.50;2.97;;;10.70;99.90;;;;;;4892856;29;20406;-72
2022/12/24 06:23:52;;;;;;;16.50;4.10;;;10.70;99.90;;;;;;4892926;29;20457;-72
2022/12/24 06:26:22;;;;;;;12.40;3.60;;;10.70;99.90;;;;;;4901898;28;20440;-72
2022/12/24 06:28:51;;;;;;;10.17;3.67;;;10.60;99.90;;;;;;4911143;29;20510;-72
2022/12/24 06:31:21;;;;;;;6.90;3.10;;;10.70;99.90;;;;;;4892722;29;20492;-72
2022/12/24 06:33:50;;;;;;;8.30;3.00;;;10.70;99.90;;;;;;4877239;29;20803;-72
2022/12/24 06:36:19;;;;;;;16.03;4.40;;;10.70;99.90;;;;;;4892523;29;20421;-72
2022/12/24 06:38:48;;;;;;;13.70;4.40;;;10.70;99.90;;;;;;4892582;29;20430;-72
2022/12/24 06:41:27;;;;;;;10.17;3.70;;;10.70;99.90;;;;;;4891938;29;20922;-72
2022/12/24 06:43:56;;;;;;;11.50;4.27;;;10.70;99.90;;;;;;4892554;29;20489;-72
2022/12/24 06:46:24;;;;;;;14.87;4.40;;;10.60;99.90;;;;;;4892531;29;20548;-71
2022/12/24 06:48:50;;;;;;;11.83;3.87;;;10.60;99.90;;;;;;4892617;29;20444;-72
2022/12/24 06:51:21;;;;;;;17.70;3.97;;;10.60;99.90;;;;;;4891799;29;20530;-71
2022/12/24 06:53:51;;;;;;;12.87;3.90;;;10.70;99.90;;;;;;4892526;29;20442;-72
2022/12/24 06:56:19;;;;;;;12.40;3.63;;;10.70;99.90;;;;;;4859254;29;20423;-71
2022/12/24 06:58:52;;;;;;;14.47;4.87;;;10.60;99.90;;;;;;4891641;28;20441;-72
2022/12/24 07:01:19;;;;;;;15.07;4.30;;;10.70;99.90;;;;;;4873677;29;20549;-72
2022/12/24 07:03:45;;;;;;;10.43;3.90;;;10.70;99.90;;;;;;4955607;28;20525;-72
2022/12/24 07:06:20;;;;;;;16.97;4.27;;;10.70;99.90;;;;;;4875988;29;20467;-72
2022/12/24 07:08:46;;;;;;;8.73;3.77;;;10.70;99.90;;;;;;4895346;29;20456;-71
2022/12/24 07:11:15;;;;;;;12.97;4.27;;;10.70;99.90;;;;;;4895326;29;20445;-70
2022/12/24 07:13:43;;;;;;;9.50;4.50;;;10.70;99.90;;;;;;4892295;29;20872;-72
2022/12/24 07:16:11;;;;;;;14.80;4.87;;;10.60;99.90;;;;;;4909498;29;20487;-73
2022/12/24 07:18:40;;;;;;;14.20;4.63;;;10.60;99.90;;;;;;4895898;29;20494;-71
2022/12/24 07:21:06;;;;;;;12.83;4.33;;;10.70;99.90;;;;;;4879413;29;20442;-72
2022/12/24 07:23:35;;;;;;;12.23;4.37;;;10.70;99.90;;;;;;4894238;29;20955;-72
2022/12/24 07:26:03;;;;;;;14.00;4.00;;;10.60;99.90;;;;;;4895176;29;20936;-72
2022/12/24 07:28:29;;;;;;;16.37;4.90;;;10.70;99.90;;;;;;4918517;29;20600;-72
2022/12/24 07:30:59;;;;;;;15.33;4.20;;;10.60;99.90;;;;;;4895452;29;20461;-72
2022/12/24 07:33:30;;;;;;;15.03;4.60;;;10.60;99.90;;;;;;4894779;29;20808;-72
2022/12/24 07:36:04;;;;;;;22.10;4.80;;;10.60;99.90;;;;;;4883499;28;20441;-72
2022/12/24 07:38:34;;;;;;;12.47;3.80;;;10.60;99.90;;;;;;4895235;29;20422;-72
2022/12/24 07:41:02;;;;;;;12.27;4.17;;;10.60;99.90;;;;;;4895587;29;20795;-72
2022/12/24 07:43:34;;;;;;;11.33;3.80;;;10.60;99.90;;;;;;4876226;29;20990;-72
2022/12/24 07:46:01;;;;;;;17.83;4.87;;;10.60;99.90;;;;;;4876820;29;20442;-72
2022/12/24 07:48:28;;;;;;;19.43;5.73;;;10.60;99.90;;;;;;4890392;28;20514;-72
2022/12/24 07:50:56;;;;;;;14.20;3.87;;;10.60;99.90;;;;;;4894684;29;20462;-72
2022/12/24 07:53:23;;;;;;;12.90;4.17;;;10.60;99.90;;;;;;4895339;29;20954;-72
2022/12/24 07:55:49;;;;;;;12.23;4.30;;;10.60;99.90;;;;;;4910784;29;20449;-72
2022/12/24 07:58:15;;;;;;;10.80;4.10;;;10.60;99.90;;;;;;4894964;28;20453;-73
2022/12/24 08:00:41;;;;;;;20.27;5.50;;;10.60;99.90;;;;;;4910893;29;20433;-71
2022/12/24 08:03:09;;;;;;;11.03;4.20;;;10.60;99.90;;;;;;4894665;29;20453;-71
2022/12/24 08:05:35;;;;;;;13.80;5.03;;;10.60;99.90;;;;;;4896205;29;20417;-70
2022/12/24 08:08:04;;;;;;;11.03;4.63;;;10.60;99.90;;;;;;4894338;29;20556;-71
2022/12/24 08:10:30;;;;;;;11.90;4.90;;;10.60;99.90;;;;;;4879054;29;20991;-71
2022/12/24 08:12:58;;;;;;;17.90;4.70;;;10.60;99.90;;;;;;4880010;29;20456;-71
2022/12/24 08:15:35;;;;;;;12.83;4.73;;;10.60;99.90;;;;;;4895776;29;20473;-71
2022/12/24 08:18:04;;;;;;;15.60;4.27;;;10.60;99.90;;;;;;4894786;29;20434;-70
2022/12/24 08:20:30;;;;;;;10.57;4.40;;;10.60;99.90;;;;;;4893488;29;21166;-71
2022/12/24 08:22:59;;;;;;;16.00;4.93;;;10.60;99.90;;;;;;4879142;29;20520;-70
2022/12/24 08:25:25;;;;;;;17.80;5.40;;;10.60;99.90;;;;;;4910005;29;20899;-71
2022/12/24 08:27:53;;;;;;;17.33;4.80;;;10.60;99.90;;;;;;4923860;29;20457;-71
2022/12/24 08:30:19;;;;;;;15.77;4.93;;;10.60;99.90;;;;;;4895973;29;20503;-71
2022/12/24 08:32:48;;;;;;;14.90;5.27;;;10.60;99.90;;;;;;4911292;29;20880;-71
2022/12/24 08:35:16;;;;;;;12.90;3.90;;;10.60;99.90;;;;;;4896008;29;20490;-71
2022/12/24 08:37:42;;;;;;;10.83;4.57;;;10.60;99.90;;;;;;4895463;29;20504;-71
2022/12/24 08:40:08;;;;;;;16.97;5.23;;;10.60;99.90;;;;;;4880395;29;20573;-71
2022/12/24 08:42:34;;;;;;;12.70;6.37;;;10.60;99.90;;;;;;4880238;29;20496;-71
2022/12/24 08:45:00;;;;;;;14.47;4.13;;;10.60;99.90;;;;;;4896007;29;20526;-74
2022/12/24 08:47:34;;;;;;;10.67;3.97;;;10.60;99.90;;;;;;4894557;29;20791;-72
2022/12/24 08:50:06;;;;;;;20.03;4.20;;;10.60;99.90;;;;;;4895634;29;20549;-73
2022/12/24 08:52:34;;;;;;;10.80;4.20;;;10.60;99.90;;;;;;4894049;29;20470;-72
2022/12/24 08:55:04;;;;;;;16.33;5.00;;;10.50;99.90;;;;;;4875765;29;20466;-72
2022/12/24 08:57:30;;;;;;;15.03;4.97;;;10.60;99.90;;;;;;4888011;28;20476;-74
2022/12/24 08:59:56;;;;;;;10.97;4.07;;;10.50;99.90;;;;;;4894309;29;20513;-73
2022/12/24 09:02:24;;;;;;;8.97;4.03;;;10.50;99.90;;;;;;4893393;29;20477;-75
2022/12/24 09:04:50;;;;;;;16.27;4.50;;;10.50;99.90;;;;;;4894571;29;20446;-73
2022/12/24 09:07:18;;;;;;;11.03;4.40;;;10.60;99.90;;;;;;4909227;29;20450;-72
2022/12/24 09:09:44;;;;;;;13.10;4.20;;;10.50;99.90;;;;;;4895018;29;20518;-73
2022/12/24 09:12:10;;;;;;;10.90;4.07;;;10.50;99.90;;;;;;4894770;29;20459;-75
2022/12/24 09:14:36;;;;;;;17.93;4.57;;;10.60;99.90;;;;;;4894871;28;20473;-74
2022/12/24 09:17:04;;;;;;;14.10;4.80;;;10.50;99.90;;;;;;4895383;29;20814;-72
2022/12/24 09:19:32;;;;;;;14.27;4.73;;;10.50;99.90;;;;;;4900404;28;20467;-73
2022/12/24 09:22:00;;;;;;;13.50;4.47;;;10.50;99.90;;;;;;4913458;29;21254;-74
2022/12/24 09:24:29;;;;;;;14.80;4.33;;;10.50;99.90;;;;;;4908669;29;20421;-72
2022/12/24 09:26:55;;;;;;;12.97;4.57;;;10.60;99.90;;;;;;4878675;29;20517;-73
2022/12/24 09:29:21;;;;;;;16.03;5.10;;;10.60;99.90;;;;;;4877637;29;20488;-74
2022/12/24 09:31:54;;;;;;;15.00;4.00;;;10.60;99.90;;;;;;4878084;28;20474;-74
2022/12/24 09:34:25;;;;;;;16.97;5.50;;;10.60;99.90;;;;;;4878432;29;20434;-74
2022/12/24 09:36:53;;;;;;;12.17;4.53;;;10.60;99.90;;;;;;4878605;29;20425;-74
2022/12/24 09:39:19;;;;;;;17.20;5.17;;;10.50;99.90;;;;;;4893260;29;20469;-75
2022/12/24 09:42:05;;;;;;;13.20;4.27;;;10.60;99.90;;;;;;4909032;29;20421;-74
2022/12/24 09:44:46;;;;;;;13.50;4.70;;;10.50;99.90;;;;;;4894970;29;20982;-75
2022/12/24 09:47:38;;;;;;;17.53;6.50;;;10.50;99.90;;;;;;4864088;29;20981;-74
2022/12/24 09:50:29;;;;;;;14.90;4.77;;;10.50;99.90;;;;;;4895678;29;20816;-73
2022/12/24 09:52:57;;;;;;;17.60;5.83;;;10.60;99.90;;;;;;4895322;29;20441;-71
2022/12/24 09:55:55;;;;;;;21.63;5.00;;;10.60;99.90;;;;;;4894484;29;20409;-73
2022/12/24 09:58:29;;;;;;;13.83;5.07;;;10.60;99.90;;;;;;4906156;28;20446;-75
2022/12/24 10:00:56;;;;;;;15.70;5.33;;;10.60;99.90;;;;;;4881853;29;20966;-73
2022/12/24 10:03:27;;;;;;;21.50;5.70;;;10.60;99.90;;;;;;4893443;29;20477;-76
2022/12/24 10:06:04;;;;;;;11.40;4.30;;;10.60;99.90;;;;;;4975634;28;20453;-73
2022/12/24 10:08:59;;;;;;;14.33;5.43;;;10.60;99.90;;;;;;4878097;29;20477;-73
2022/12/24 10:11:59;;;;;;;13.27;4.60;;;10.60;99.90;;;;;;4895140;29;20452;-73
2022/12/24 10:15:00;;;;;;;13.70;5.20;;;10.60;99.90;;;;;;4870719;29;20493;-74
2022/12/24 10:17:34;;;;;;;12.43;4.73;;;10.60;99.90;;;;;;4893325;29;20450;-73
2022/12/24 10:20:23;;;;;;;18.50;5.33;;;10.60;99.90;;;;;;4890976;28;20549;-74
2022/12/24 10:23:12;;;;;;;23.37;5.20;;;10.60;99.90;;;;;;4893494;29;20496;-74
2022/12/24 10:25:42;;;;;;;14.30;5.10;;;10.60;99.90;;;;;;4877925;29;20499;-72
2022/12/24 10:28:17;;;;;;;14.63;4.57;;;10.60;99.90;;;;;;4874496;29;20562;-77
2022/12/24 10:30:49;;;;;;;15.13;4.93;;;10.60;99.90;;;;;;4879653;29;20474;-78
2022/12/24 10:33:26;;;;;;;15.10;4.70;;;10.60;99.90;;;;;;4896643;29;20982;-78
2022/12/24 10:35:57;;;;;;;12.13;4.53;;;10.60;99.90;;;;;;4898015;29;20469;-79
2022/12/24 10:38:30;;;;;;;17.93;4.43;;;10.60;99.90;;;;;;4889545;29;20434;-79
2022/12/24 10:40:59;;;;;;;11.33;4.73;;;10.60;99.90;;;;;;4865886;29;20871;-79
2022/12/24 10:43:31;;;;;;;20.03;6.00;;;10.60;99.90;;;;;;4880118;29;21051;-77
2022/12/24 10:46:05;;;;;;;18.57;4.90;;;10.60;99.90;;;;;;4891987;29;20415;-76
2022/12/24 10:48:50;;;;;;;15.30;5.13;;;10.70;99.90;;;;;;4908774;28;20534;-77
2022/12/24 10:51:22;;;;;;;14.70;5.03;;;10.60;99.90;;;;;;4878510;29;20435;-74
2022/12/24 10:53:55;;;;;;;15.40;5.40;;;10.70;99.90;;;;;;4895040;29;20457;-74
2022/12/24 10:56:21;;;;;;;12.87;5.50;;;10.60;99.90;;;;;;4874323;29;20990;-75
2022/12/24 10:58:53;;;;;;;14.30;4.63;;;10.70;99.90;;;;;;4940910;28;20453;-77
2022/12/24 11:01:40;;;;;;;16.23;5.10;;;10.60;99.90;;;;;;4884070;29;20987;-75
2022/12/24 11:04:18;;;;;;;16.27;5.60;;;10.60;99.90;;;;;;4893035;29;20794;-74
2022/12/24 11:07:17;;;;;;;15.37;4.57;;;10.60;99.90;;;;;;4894905;28;20461;-73
2022/12/24 11:10:00;;;;;;;14.43;4.73;;;10.70;99.90;;;;;;4893745;28;20470;-77
2022/12/24 11:12:52;;;;;;;16.57;4.80;;;10.70;99.90;;;;;;4895068;28;20556;-76
2022/12/24 11:15:23;;;;;;;13.93;4.03;;;10.70;99.90;;;;;;4889712;29;20469;-74
2022/12/24 11:18:03;;;;;;;20.63;5.67;;;10.70;99.90;;;;;;4909150;29;20406;-77
2022/12/24 11:20:34;;;;;;;24.77;5.13;;;10.70;99.90;;;;;;4876186;29;20450;-76
2022/12/24 11:23:05;;;;;;;23.20;5.50;;;10.70;99.90;;;;;;4922611;29;20454;-77
2022/12/24 11:25:39;;;;;;;17.13;5.33;;;10.70;99.90;;;;;;4971795;28;20433;-78
2022/12/24 11:28:25;;;;;;;17.13;4.50;;;10.70;99.90;;;;;;4895161;29;20561;-76
2022/12/24 11:30:59;;;;;;;19.00;4.60;;;10.70;99.90;;;;;;4864412;29;20433;-77
2022/12/24 11:33:25;;;;;;;19.33;4.80;;;10.70;99.90;;;;;;4893564;29;20570;-77
2022/12/24 11:36:00;;;;;;;19.03;4.93;;;10.70;99.90;;;;;;4895328;28;20554;-76
2022/12/24 11:38:28;;;;;;;16.13;4.83;;;10.70;99.90;;;;;;4892721;29;20453;-76
2022/12/24 11:41:10;;;;;;;16.67;4.70;;;10.70;99.90;;;;;;4893688;29;20434;-74
2022/12/24 11:43:45;;;;;;;19.87;5.00;;;10.80;99.90;;;;;;4907945;28;20493;-76
2022/12/24 11:46:37;;;;;;;17.80;4.70;;;10.70;99.90;;;;;;4876237;29;21397;-74
2022/12/24 11:49:21;;;;;;;15.50;4.90;;;10.80;99.90;;;;;;4900264;29;20817;-72
2022/12/24 11:52:10;;;;;;;23.43;4.90;;;10.80;99.90;;;;;;4889274;29;20469;-74
2022/12/24 11:54:49;;;;;;;18.73;5.20;;;10.80;99.90;;;;;;4892654;29;20500;-77
2022/12/24 11:57:26;;;;;;;18.17;4.90;;;10.80;99.90;;;;;;4878006;28;21041;-73
2022/12/24 11:59:54;;;;;;;15.20;5.43;;;10.80;99.90;;;;;;4905014;28;20433;-74
2022/12/24 12:02:42;;;;;;;21.67;5.73;;;10.80;99.90;;;;;;4893460;29;20450;-73
2022/12/24 12:05:19;;;;;;;20.20;5.80;;;10.80;99.90;;;;;;4909342;29;20472;-73
2022/12/24 12:07:52;;;;;;;16.53;5.10;;;10.80;99.90;;;;;;4895140;28;20473;-77
2022/12/24 12:10:31;;;;;;;14.63;4.53;;;10.80;99.90;;;;;;4895885;29;20453;-76
2022/12/24 12:13:05;;;;;;;12.07;4.70;;;10.80;99.90;;;;;;4905810;28;20456;-75
2022/12/24 12:16:10;;;;;;;15.57;5.30;;;10.80;99.90;;;;;;4907912;29;20538;-77
2022/12/24 12:18:45;;;;;;;20.20;4.60;;;10.80;99.90;;;;;;4896726;29;20426;-72
2022/12/24 12:21:18;;;;;;;13.10;4.20;;;10.80;99.90;;;;;;4894296;29;21048;-71
2022/12/24 12:23:55;;;;;;;14.53;4.47;;;10.90;99.90;;;;;;4895021;29;20453;-75
2022/12/24 12:26:32;;;;;;;21.57;5.50;;;10.90;99.90;;;;;;4894417;28;20528;-75
2022/12/24 12:29:17;;;;;;;15.20;4.70;;;10.90;99.90;;;;;;4892276;29;20869;-75
2022/12/24 12:31:51;;;;;;;16.07;4.97;;;10.90;99.90;;;;;;4876851;28;20845;-74
2022/12/24 12:34:25;;;;;;;16.47;5.77;;;10.90;99.90;;;;;;4941784;28;20439;-74
2022/12/24 12:37:05;;;;;;;19.87;4.70;;;10.90;99.90;;;;;;4879549;28;20447;-77
2022/12/24 12:39:32;;;;;;;16.77;4.77;;;10.90;99.90;;;;;;4876496;29;20462;-73
2022/12/24 12:42:13;;;;;;;13.10;4.20;;;10.90;99.90;;;;;;4908017;29;20472;-73
2022/12/24 12:45:06;;;;;;;13.70;4.20;;;10.90;99.90;;;;;;4877380;29;20493;-73
2022/12/24 12:47:51;;;;;;;18.97;5.93;;;10.90;99.90;;;;;;4908220;29;20404;-73
2022/12/24 12:50:26;;;;;;;14.80;4.70;;;11.00;99.90;;;;;;4877168;29;20440;-72
2022/12/24 12:53:04;;;;;;;20.93;4.23;;;11.00;99.90;;;;;;4877108;29;20446;-73
2022/12/24 12:56:05;;;;;;;18.37;5.60;;;10.90;99.90;;;;;;4894528;29;20427;-73
2022/12/24 12:58:47;;;;;;;18.63;4.90;;;11.00;99.90;;;;;;4929387;29;20456;-71
2022/12/24 13:01:24;;;;;;;22.27;4.67;;;11.00;99.90;;;;;;4894745;29;20951;-74
2022/12/24 13:04:16;;;;;;;10.00;4.00;;;11.00;99.90;;;;;;4894292;28;20465;-72
2022/12/24 13:07:37;;;;;;;15.77;4.40;;;11.00;99.90;;;;;;4892599;29;20444;-72
2022/12/24 13:10:40;;;;;;;13.73;4.27;;;11.00;99.90;;;;;;4874312;29;20470;-72
2022/12/24 13:13:20;;;;;;;19.40;4.90;;;11.00;99.90;;;;;;4885152;29;20445;-74